Austonio, Texas
Current Conditions -  °F | °C
As of 10:35 PM on Sunday 21 Dec 2014 (Local Time) from KDKR Reporting Station
NA  
Wind Chill: 55°   Ceiling: NA
Heat Index: 55°   Visibility: NA
Dew Point: 52°   Wind: 8mph
Humidity: 88%   Direction: 160°SSE
Pressure: 29.88"   Gusts: NA
Location:  31.2828°N, 95.4821°W
Report Text: KDKR 220435Z AUTO 16007KT 13/11 A2988 RMK AO2
Loading
Personal Weather Stations






























Interactive Weather Map New forecast layout! Learn more

10-Day Weather Forecast

Advertisements
Track Severe Weather on mobile